Time;durP1;ratioP1;P1;durP2;ratioP2;P2;SDS_P1;SDS_P2;PMS_P1;PMS_P2;Temp;Humidity;BMP_temperature;BMP_pressure;BME280_temperature;BME280_humidity;BME280_pressure;Samples;Min_cycle;Max_cycle;Signal;HPM_P1;HPM_P2
2022/01/17 00:01:40;;;;;;;29.17;9.87;;;;;;;5.45;94.71;101863.34;5009366;28;20464;-48
2022/01/17 00:04:10;;;;;;;15.70;9.70;;;;;;;5.43;95.44;101868.78;5012012;28;20488;-46
2022/01/17 00:06:41;;;;;;;24.97;10.83;;;;;;;5.42;95.23;101863.63;5012090;28;20441;-49
2022/01/17 00:09:08;;;;;;;26.53;10.07;;;;;;;5.40;95.99;101863.78;5011855;28;20450;-45
2022/01/17 00:11:41;;;;;;;15.33;8.97;;;;;;;5.38;95.61;101856.91;5011157;28;20472;-47
2022/01/17 00:14:12;;;;;;;24.50;9.23;;;;;;;5.38;95.68;101859.56;5012058;28;20436;-50
2022/01/17 00:16:44;;;;;;;26.90;11.53;;;;;;;5.37;95.33;101842.03;5009453;28;20430;-50
2022/01/17 00:19:37;;;;;;;23.17;10.87;;;;;;;5.36;95.66;101822.69;5008914;28;20494;-48
2022/01/17 00:22:06;;;;;;;22.70;10.73;;;;;;;5.39;95.55;101848.03;4998813;28;20444;-49
2022/01/17 00:24:34;;;;;;;16.83;8.50;;;;;;;5.39;95.30;101856.78;5011688;28;20433;-45
2022/01/17 00:27:02;;;;;;;16.07;9.00;;;;;;;5.39;95.97;101853.31;5010131;28;20443;-47
2022/01/17 00:29:29;;;;;;;18.30;10.07;;;;;;;5.40;95.70;101858.47;4999106;28;20459;-45
2022/01/17 00:31:57;;;;;;;18.93;10.60;;;;;;;5.39;95.63;101837.44;5011175;28;20483;-47
2022/01/17 00:34:26;;;;;;;21.47;9.83;;;;;;;5.43;95.42;101823.81;5011838;28;20821;-44
2022/01/17 00:36:54;;;;;;;21.07;10.20;;;;;;;5.45;95.21;101827.16;5011697;28;20444;-47
2022/01/17 00:39:23;;;;;;;22.90;9.43;;;;;;;5.45;95.00;101815.72;5011570;28;20481;-48
2022/01/17 00:41:51;;;;;;;26.93;10.20;;;;;;;5.46;95.53;101822.69;5005256;28;20860;-45
2022/01/17 00:44:21;;;;;;;16.93;9.47;;;;;;;5.48;95.03;101823.38;5010673;28;20448;-44
2022/01/17 00:46:49;;;;;;;24.33;11.13;;;;;;;5.48;95.39;101836.63;5015477;28;20995;-44
2022/01/17 00:49:19;;;;;;;28.63;10.87;;;;;;;5.45;95.48;101840.38;5015646;28;20456;-47
2022/01/17 00:51:46;;;;;;;27.83;9.03;;;;;;;5.48;95.85;101833.97;5014873;28;20469;-46
2022/01/17 00:54:14;;;;;;;18.03;8.80;;;;;;;5.48;95.57;101842.75;5015577;28;20433;-46
2022/01/17 00:56:43;;;;;;;25.47;8.77;;;;;;;5.50;95.28;101848.72;5006723;28;20448;-47
2022/01/17 00:59:11;;;;;;;20.83;9.97;;;;;;;5.51;95.15;101833.69;5015137;28;20491;-46
2022/01/17 01:01:39;;;;;;;33.57;9.63;;;;;;;5.50;95.15;101824.91;5013462;28;20463;-49
2022/01/17 01:04:06;;;;;;;24.33;9.30;;;;;;;5.48;95.57;101826.88;5015401;28;20430;-45
2022/01/17 01:06:36;;;;;;;23.40;9.90;;;;;;;5.49;95.29;101843.59;5015261;28;20443;-45
2022/01/17 01:09:04;;;;;;;23.33;9.73;;;;;;;5.51;95.02;101855.72;5015117;28;20453;-47
2022/01/17 01:11:32;;;;;;;29.57;11.10;;;;;;;5.53;95.50;101879.38;5014461;28;20461;-45
2022/01/17 01:14:05;;;;;;;24.83;11.70;;;;;;;5.55;95.43;101862.38;5015170;28;20946;-45
2022/01/17 01:16:35;;;;;;;20.97;10.50;;;;;;;5.56;94.69;101887.88;5015282;28;20447;-47
2022/01/17 01:19:25;;;;;;;23.80;10.23;;;;;;;5.59;94.88;101855.84;5015185;28;20931;-45
2022/01/17 01:27:54;;;;;;;22.40;9.77;;;;;;;5.71;92.99;101861.84;5014790;28;20443;-45
2022/01/17 01:30:26;;;;;;;21.00;9.47;;;;;;;5.72;93.97;101860.88;5003026;28;20473;-46
2022/01/17 01:32:57;;;;;;;30.30;11.33;;;;;;;5.79;92.60;101861.19;5014848;28;20430;-45
2022/01/17 01:35:27;;;;;;;22.73;10.33;;;;;;;5.83;92.76;101858.09;5014771;28;20444;-48
2022/01/17 01:37:55;;;;;;;23.20;9.40;;;;;;;5.87;93.11;101854.25;5014731;28;20443;-46
2022/01/17 01:40:23;;;;;;;28.77;9.50;;;;;;;5.88;92.65;101850.63;5013751;28;20475;-49
2022/01/17 01:42:53;;;;;;;29.37;9.20;;;;;;;5.93;93.30;101858.97;5014592;28;20433;-46
2022/01/17 01:45:21;;;;;;;26.07;10.80;;;;;;;5.93;93.20;101858.13;5014355;28;20437;-50
2022/01/17 01:47:50;;;;;;;20.63;9.27;;;;;;;5.96;92.81;101852.56;5014568;28;20429;-48
2022/01/17 01:50:19;;;;;;;34.73;9.33;;;;;;;5.99;93.28;101855.78;5013887;28;20480;-48
2022/01/17 01:52:47;;;;;;;19.97;9.47;;;;;;;6.02;93.16;101847.56;5014380;28;20965;-45
2022/01/17 01:55:17;;;;;;;22.60;9.50;;;;;;;6.04;93.41;101832.34;5014287;28;20456;-45
2022/01/17 01:57:45;;;;;;;21.07;8.97;;;;;;;6.06;93.47;101840.97;5014594;28;20853;-45
2022/01/17 02:00:15;;;;;;;28.23;9.97;;;;;;;6.07;93.92;101818.00;5013658;28;20471;-47
2022/01/17 02:02:43;;;;;;;21.03;8.93;;;;;;;6.05;94.48;101831.38;5014147;28;20433;-45
2022/01/17 02:07:49;;;;;;;19.13;10.30;;;;;;;6.07;94.53;101800.28;4971795;28;20470;-43
2022/01/17 02:10:17;;;;;;;28.13;10.10;;;;;;;6.08;94.09;101795.84;4977541;28;20462;-47
2022/01/17 02:12:45;;;;;;;19.33;8.93;;;;;;;6.08;93.96;101786.09;4977443;28;20791;-51
2022/01/17 02:15:14;;;;;;;28.63;10.43;;;;;;;6.09;94.28;101789.56;4981686;28;20434;-48
2022/01/17 02:17:45;;;;;;;18.53;10.63;;;;;;;6.11;94.71;101784.97;5002505;28;20815;-51
2022/01/17 02:20:21;;;;;;;35.47;10.93;;;;;;;6.10;94.02;101777.97;5000866;28;20837;-46
2022/01/17 02:22:49;;;;;;;24.47;10.37;;;;;;;6.07;94.61;101757.09;5002664;28;20514;-50
2022/01/17 02:25:17;;;;;;;26.47;11.43;;;;;;;6.10;94.59;101744.41;4999864;28;20434;-45
2022/01/17 02:27:44;;;;;;;21.30;9.50;;;;;;;6.11;94.22;101734.66;5002911;28;20442;-46
2022/01/17 02:30:16;;;;;;;26.77;10.80;;;;;;;6.10;95.15;101707.31;5007221;28;21078;-47
2022/01/17 02:32:44;;;;;;;19.70;9.57;;;;;;;6.12;95.05;101710.66;5007825;28;20773;-48
2022/01/17 02:35:13;;;;;;;15.40;10.30;;;;;;;6.11;95.01;101709.00;5009464;28;20441;-45
2022/01/17 02:37:42;;;;;;;25.93;11.17;;;;;;;6.13;95.09;101701.75;5009091;28;20429;-45
2022/01/17 02:40:12;;;;;;;35.53;10.50;;;;;;;6.12;94.73;101702.72;5001155;28;20473;-47
2022/01/17 02:42:39;;;;;;;24.53;11.50;;;;;;;6.13;95.21;101714.13;5011922;28;20439;-49
2022/01/17 02:45:12;;;;;;;25.73;10.07;;;;;;;6.12;95.02;101723.09;4996017;28;20434;-52
2022/01/17 02:47:40;;;;;;;21.40;9.90;;;;;;;6.12;94.84;101723.88;5003548;28;20472;-50
2022/01/17 02:50:08;;;;;;;28.37;11.90;;;;;;;6.13;95.56;101720.28;4995550;28;20461;-51
2022/01/17 02:52:36;;;;;;;26.47;10.87;;;;;;;6.11;95.20;101711.66;4997876;28;20797;-48
2022/01/17 02:55:06;;;;;;;23.60;9.70;;;;;;;6.13;95.01;101717.63;4999451;28;20441;-47
2022/01/17 02:57:34;;;;;;;35.13;11.53;;;;;;;6.13;95.69;101692.94;4997456;28;20457;-48
2022/01/17 03:00:01;;;;;;;15.93;9.93;;;;;;;6.14;95.38;101715.81;5003460;28;20476;-45
2022/01/17 03:02:29;;;;;;;25.10;10.00;;;;;;;6.16;95.57;101713.84;5001416;28;20434;-46
2022/01/17 03:04:57;;;;;;;21.50;11.07;;;;;;;6.18;95.42;101716.38;4995235;28;20845;-47
2022/01/17 03:07:24;;;;;;;24.37;10.77;;;;;;;6.18;95.64;101733.09;5004381;28;20457;-46
2022/01/17 03:10:01;;;;;;;27.53;11.60;;;;;;;6.19;95.62;101747.16;5006218;28;20453;-49
2022/01/17 03:12:31;;;;;;;21.20;10.80;;;;;;;6.17;95.87;101730.59;4995167;28;21098;-50
2022/01/17 03:14:58;;;;;;;26.77;11.47;;;;;;;6.11;95.59;101743.44;4996621;28;20442;-51
2022/01/17 03:17:26;;;;;;;24.83;9.93;;;;;;;6.13;95.80;101740.63;4998729;28;20453;-50
2022/01/17 03:19:54;;;;;;;28.50;10.50;;;;;;;6.15;95.91;101751.09;4995192;28;20458;-46
2022/01/17 03:22:21;;;;;;;30.67;11.40;;;;;;;6.16;95.54;101750.94;5004318;28;20438;-49
2022/01/17 03:24:50;;;;;;;23.43;10.13;;;;;;;6.14;95.64;101742.31;5004055;28;20491;-50
2022/01/17 03:27:18;;;;;;;25.77;10.50;;;;;;;6.17;95.69;101751.78;4997846;28;20817;-45
2022/01/17 03:29:47;;;;;;;24.83;12.17;;;;;;;6.16;95.85;101739.50;4996613;28;20445;-46
2022/01/17 03:32:14;;;;;;;29.90;11.97;;;;;;;6.15;95.55;101730.75;5000575;28;20435;-51
2022/01/17 03:34:43;;;;;;;28.30;10.73;;;;;;;6.17;95.89;101734.06;5002526;28;20518;-47
2022/01/17 03:37:10;;;;;;;27.10;11.60;;;;;;;6.19;95.18;101739.22;4998435;28;20463;-45
2022/01/17 03:39:38;;;;;;;35.07;11.37;;;;;;;6.18;95.87;101730.47;5000221;28;20441;-46
2022/01/17 03:42:06;;;;;;;44.17;11.83;;;;;;;6.16;95.16;101728.91;5008483;28;20473;-49
2022/01/17 03:44:33;;;;;;;24.53;11.30;;;;;;;6.16;95.16;101731.56;4998043;28;20426;-48
2022/01/17 03:47:02;;;;;;;28.93;11.37;;;;;;;6.18;95.21;101732.25;5004301;28;20463;-49
2022/01/17 03:49:30;;;;;;;29.30;10.57;;;;;;;6.16;94.74;101727.09;5008861;28;20994;-48
2022/01/17 03:51:58;;;;;;;31.70;12.50;;;;;;;6.18;94.11;101711.91;4992223;28;20442;-48
2022/01/17 03:54:25;;;;;;;25.33;11.80;;;;;;;6.23;94.17;101714.94;4997432;28;20433;-48
2022/01/17 03:56:53;;;;;;;27.87;11.37;;;;;;;6.24;94.07;101705.19;4985864;28;20466;-50
2022/01/17 03:59:21;;;;;;;24.90;12.00;;;;;;;6.26;94.03;101714.66;4995922;28;20438;-45
2022/01/17 04:01:48;;;;;;;19.37;10.53;;;;;;;6.27;93.46;101718.16;4995002;28;20505;-48
2022/01/17 04:04:18;;;;;;;21.20;10.27;;;;;;;6.26;93.23;101727.06;5002729;28;20777;-49
2022/01/17 04:06:46;;;;;;;30.97;11.90;;;;;;;6.26;92.69;101719.13;5000351;28;20476;-50
2022/01/17 04:09:14;;;;;;;30.33;11.10;;;;;;;6.26;91.79;101719.13;5009477;28;20462;-49
2022/01/17 04:11:42;;;;;;;29.03;12.00;;;;;;;6.25;90.51;101714.78;4998824;28;20458;-51
2022/01/17 04:14:10;;;;;;;26.47;11.87;;;;;;;6.24;89.47;101710.50;4998887;28;20430;-50
2022/01/17 04:16:38;;;;;;;33.07;12.40;;;;;;;6.22;88.37;101713.28;4994250;28;20465;-46
2022/01/17 04:19:06;;;;;;;37.13;13.40;;;;;;;6.17;86.71;101704.09;4999095;28;20490;-51
2022/01/17 04:21:40;;;;;;;29.70;12.53;;;;;;;6.09;81.97;101716.22;5004774;28;20473;-47
2022/01/17 04:24:08;;;;;;;30.33;12.00;;;;;;;6.02;76.61;101703.72;5009089;28;20437;-44
2022/01/17 04:26:35;;;;;;;34.63;12.77;;;;;;;5.95;70.66;101698.16;5002880;28;20466;-46
2022/01/17 04:29:03;;;;;;;31.83;12.87;;;;;;;5.89;65.84;101708.50;4992414;28;20452;-51
2022/01/17 04:31:30;;;;;;;41.83;13.50;;;;;;;5.82;59.90;101681.75;5000209;28;20457;-49
2022/01/17 04:33:58;;;;;;;28.43;13.37;;;;;;;5.78;54.66;101680.34;5004755;28;20437;-50
2022/01/17 04:36:27;;;;;;;36.37;13.47;;;;;;;5.76;50.90;101687.59;5010715;28;20449;-45
2022/01/17 04:38:56;;;;;;;41.37;14.33;;;;;;;5.74;49.00;101686.06;4998537;28;20434;-49
2022/01/17 04:41:35;;;;;;;36.80;14.30;;;;;;;5.71;45.53;101684.53;4998533;28;20472;-47
2022/01/17 04:45:07;;;;;;;34.63;13.03;;;;;;;5.70;42.53;101687.34;4994627;28;20435;-46
2022/01/17 04:46:51;;;;;;;32.13;14.03;;;;;;;5.66;39.33;101689.44;4988662;28;20458;-46
2022/01/17 04:49:19;;;;;;;29.70;12.87;;;;;;;5.68;36.61;101710.44;5002259;28;20429;-51
2022/01/17 04:51:52;;;;;;;40.63;12.47;;;;;;;5.68;34.83;101711.28;5008480;28;20999;-48
2022/01/17 04:54:40;;;;;;;34.27;12.93;;;;;;;5.71;32.53;101729.53;5003633;28;20437;-48
2022/01/17 04:57:07;;;;;;;27.87;12.17;;;;;;;5.70;29.20;101727.88;4995024;28;20441;-50
2022/01/17 04:59:36;;;;;;;27.53;11.07;;;;;;;5.72;26.77;101715.31;4997650;28;20430;-49
2022/01/17 05:02:04;;;;;;;36.13;14.00;;;;;;;5.72;26.60;101702.09;4999601;28;20484;-50
2022/01/17 05:04:32;;;;;;;24.17;12.37;;;;;;;5.73;25.63;101697.63;5008385;28;21188;-50
2022/01/17 05:07:00;;;;;;;33.27;12.73;;;;;;;5.75;25.21;101698.31;4979582;28;20473;-48
2022/01/17 05:09:29;;;;;;;26.00;12.50;;;;;;;5.78;25.18;101708.63;4992555;28;20422;-49
2022/01/17 05:11:56;;;;;;;31.40;11.97;;;;;;;5.82;25.78;101699.44;5005121;28;20442;-48
2022/01/17 05:14:25;;;;;;;28.87;13.17;;;;;;;5.84;27.31;101706.25;4999085;28;20445;-47
2022/01/17 05:16:59;;;;;;;26.97;13.27;;;;;;;5.89;26.49;101706.69;5003356;28;20465;-48
2022/01/17 05:22:12;;;;;;;25.17;15.07;;;;;;;5.90;28.76;101715.47;4991926;28;20489;-49
2022/01/17 05:24:41;;;;;;;24.43;14.07;;;;;;;5.93;27.45;101694.84;5005597;28;20434;-51
2022/01/17 05:27:09;;;;;;;26.13;14.10;;;;;;;5.91;27.68;101711.84;4988333;28;20845;-49
2022/01/17 05:29:36;;;;;;;22.27;14.60;;;;;;;5.91;26.62;101698.59;5011431;28;20429;-48
2022/01/17 05:32:05;;;;;;;20.50;16.00;;;;;;;5.92;25.01;101721.44;5031096;28;20429;-45
2022/01/17 05:34:34;;;;;;;28.80;17.97;;;;;;;5.93;23.56;101729.25;5032151;28;20831;-48
2022/01/17 05:37:02;;;;;;;25.37;15.63;;;;;;;5.98;23.18;101707.63;5028470;28;20451;-47
2022/01/17 05:39:30;;;;;;;22.17;16.27;;;;;;;5.99;23.40;101686.31;5018965;28;20434;-45
2022/01/17 05:41:59;;;;;;;23.77;16.93;;;;;;;6.06;23.68;101705.94;5027092;28;20473;-44
2022/01/17 05:44:26;;;;;;;26.13;15.70;;;;;;;6.10;24.08;101733.81;5014973;28;20440;-47
2022/01/17 05:46:54;;;;;;;16.63;14.90;;;;;;;6.15;25.02;101709.56;5020138;28;20839;-50
2022/01/17 05:49:22;;;;;;;19.63;15.27;;;;;;;6.16;26.71;101727.09;5021159;28;20950;-47
2022/01/17 05:51:49;;;;;;;22.70;18.60;;;;;;;6.21;26.84;101739.91;5018765;28;20486;-45
2022/01/17 05:54:17;;;;;;;39.30;20.90;;;;;;;6.19;28.65;101732.09;5014396;28;20504;-46
2022/01/17 05:56:49;;;;;;;23.97;21.60;;;;;;;6.26;28.48;101742.97;5011864;28;20467;-49
2022/01/17 05:59:18;;;;;;;25.73;23.03;;;;;;;6.32;30.35;101726.50;5014947;28;20464;-50
2022/01/17 06:01:45;;;;;;;31.60;23.20;;;;;;;6.35;35.18;101747.41;5016094;28;20484;-46
2022/01/17 06:04:13;;;;;;;29.27;22.10;;;;;;;6.41;39.61;101736.22;5024704;28;20432;-45
2022/01/17 06:06:41;;;;;;;29.60;21.03;;;;;;;6.43;49.54;101727.13;5025629;28;20475;-47
2022/01/17 06:09:09;;;;;;;26.83;19.93;;;;;;;6.48;53.67;101738.13;5025112;28;20442;-47
2022/01/17 06:11:37;;;;;;;31.00;19.20;;;;;;;6.58;59.25;101770.72;5021461;28;20480;-46
2022/01/17 06:14:06;;;;;;;20.33;16.80;;;;;;;6.64;67.18;101771.97;5015513;28;20440;-45
2022/01/17 06:16:36;;;;;;;30.20;17.63;;;;;;;6.67;67.46;101772.50;5026303;28;20456;-47
2022/01/17 06:19:05;;;;;;;27.07;20.67;;;;;;;6.71;68.65;101754.50;5014315;28;20426;-47
2022/01/17 06:21:33;;;;;;;28.30;20.50;;;;;;;6.80;77.75;101740.38;5013319;28;20540;-48
2022/01/17 06:24:02;;;;;;;20.40;18.47;;;;;;;6.86;80.17;101754.84;5013669;28;20444;-51
2022/01/17 06:26:30;;;;;;;33.17;18.07;;;;;;;6.79;77.93;101762.53;5020973;28;20481;-52
2022/01/17 06:28:58;;;;;;;33.37;16.93;;;;;;;6.80;74.57;101758.09;5009771;28;20468;-49
2022/01/17 06:31:29;;;;;;;28.83;20.43;;;;;;;6.83;71.09;101752.50;5022320;28;21172;-47
2022/01/17 06:33:59;;;;;;;19.50;17.93;;;;;;;6.79;71.87;101782.91;5019517;28;20437;-50
2022/01/17 06:36:26;;;;;;;30.73;23.70;;;;;;;6.83;71.51;101761.28;5022347;28;20990;-46
2022/01/17 06:38:54;;;;;;;31.87;25.30;;;;;;;6.77;68.54;101780.44;5006332;28;20437;-48
2022/01/17 06:41:22;;;;;;;34.03;25.80;;;;;;;6.77;67.58;101792.84;5017265;28;20482;-46
2022/01/17 06:43:50;;;;;;;30.93;24.80;;;;;;;6.71;64.34;101791.63;5022246;28;20565;-46
2022/01/17 06:46:17;;;;;;;40.03;27.50;;;;;;;6.72;62.75;101779.19;5022827;28;20456;-47
2022/01/17 06:48:46;;;;;;;45.97;28.70;;;;;;;6.68;64.82;101789.25;5019750;28;20442;-46
2022/01/17 06:51:15;;;;;;;38.07;26.60;;;;;;;6.78;63.75;101837.75;5026312;28;20467;-45
2022/01/17 06:53:43;;;;;;;31.93;26.93;;;;;;;6.73;64.15;101869.16;5017018;28;20437;-45
2022/01/17 06:56:11;;;;;;;29.20;26.60;;;;;;;6.74;60.57;101900.00;5019175;28;20457;-47
2022/01/17 06:58:40;;;;;;;30.73;28.23;;;;;;;6.71;77.82;101886.19;5021165;28;20428;-46
2022/01/17 07:01:08;;;;;;;28.00;25.50;;;;;;;6.63;90.47;101918.75;5011208;28;20458;-47
2022/01/17 07:03:36;;;;;;;25.37;23.70;;;;;;;6.49;95.32;101905.91;5013475;28;20898;-50
2022/01/17 07:06:04;;;;;;;16.73;15.93;;;;;;;6.35;95.52;101880.69;5013970;28;21023;-46
2022/01/17 07:08:33;;;;;;;15.03;13.70;;;;;;;6.30;95.49;101869.66;5024777;28;20457;-43
2022/01/17 07:11:01;;;;;;;16.90;10.77;;;;;;;6.26;95.81;101851.56;5018729;28;20461;-50
2022/01/17 07:13:28;;;;;;;18.87;9.70;;;;;;;6.16;94.63;101853.38;5022632;28;20428;-50
2022/01/17 07:15:56;;;;;;;14.73;9.80;;;;;;;6.08;95.25;101860.22;5012218;28;20453;-49
2022/01/17 07:18:23;;;;;;;13.60;7.17;;;;;;;6.02;94.50;101838.78;5029360;28;20841;-47
2022/01/17 07:20:51;;;;;;;10.47;9.20;;;;;;;5.95;95.29;101819.13;5016878;28;21030;-52
2022/01/17 07:23:19;;;;;;;9.17;8.27;;;;;;;5.94;96.03;101788.34;5028514;28;20468;-48
2022/01/17 07:25:48;;;;;;;12.80;8.13;;;;;;;5.91;95.80;101855.63;5016142;28;20850;-47
2022/01/17 07:28:15;;;;;;;8.93;8.13;;;;;;;5.92;95.86;101861.75;5014689;28;20433;-53
2022/01/17 07:30:43;;;;;;;14.03;8.23;;;;;;;5.96;96.71;101885.19;5011388;28;20476;-49
2022/01/17 07:33:11;;;;;;;8.17;7.33;;;;;;;5.94;96.44;101859.81;5016519;28;20439;-50
2022/01/17 07:35:39;;;;;;;10.07;7.30;;;;;;;5.95;96.88;101861.47;5023817;28;20456;-47
2022/01/17 07:38:08;;;;;;;16.87;6.17;;;;;;;5.93;96.87;101869.56;5028670;28;20443;-49
2022/01/17 07:40:36;;;;;;;11.20;7.70;;;;;;;5.88;96.56;101908.88;5012172;28;20847;-48
2022/01/17 07:43:04;;;;;;;11.80;6.90;;;;;;;5.87;96.73;101899.25;5011705;28;20591;-47
2022/01/17 07:45:32;;;;;;;11.67;6.80;;;;;;;5.84;96.56;101882.75;5009205;28;20437;-48
2022/01/17 07:48:23;;;;;;;12.20;6.10;;;;;;;5.84;96.91;101899.50;5013648;28;20449;-46
2022/01/17 07:50:50;;;;;;;10.80;7.07;;;;;;;5.80;96.43;101939.59;5005766;28;20982;-50
2022/01/17 07:53:18;;;;;;;13.03;7.60;;;;;;;5.86;95.50;101945.22;5023194;28;20421;-48
2022/01/17 07:55:45;;;;;;;9.90;6.23;;;;;;;5.82;96.33;101937.66;5021525;28;20651;-46
2022/01/17 07:58:14;;;;;;;9.67;6.90;;;;;;;5.82;95.79;101940.31;5014625;28;20438;-44
2022/01/17 08:00:42;;;;;;;17.40;7.87;;;;;;;5.81;95.44;101943.91;5011142;28;20469;-44
2022/01/17 08:03:10;;;;;;;14.30;7.33;;;;;;;5.82;95.02;101966.78;5027209;28;20468;-49
2022/01/17 08:05:37;;;;;;;13.43;7.00;;;;;;;5.83;94.74;101981.66;5019387;28;20673;-46
2022/01/17 08:08:05;;;;;;;12.73;7.63;;;;;;;5.84;94.47;101996.59;5009889;28;20442;-45
2022/01/17 08:10:33;;;;;;;16.13;7.97;;;;;;;5.83;94.79;101997.56;5006636;28;20461;-50
2022/01/17 08:13:00;;;;;;;11.50;6.63;;;;;;;5.79;94.61;101988.22;5021267;28;20441;-47
2022/01/17 08:15:30;;;;;;;11.63;6.50;;;;;;;5.75;94.52;101971.78;5020949;28;20437;-45
2022/01/17 08:17:58;;;;;;;13.87;7.07;;;;;;;5.75;94.78;101973.56;5022543;28;20433;-45
2022/01/17 08:20:26;;;;;;;9.23;6.90;;;;;;;5.72;93.14;101993.22;5012303;28;20470;-46
2022/01/17 08:22:53;;;;;;;15.23;7.23;;;;;;;5.73;93.60;101984.31;5011951;28;20492;-47
2022/01/17 08:25:21;;;;;;;14.90;7.20;;;;;;;5.73;93.15;101978.19;5013021;28;21203;-46
2022/01/17 08:27:49;;;;;;;14.20;6.93;;;;;;;5.70;91.99;101997.81;5019439;28;20911;-46
2022/01/17 08:30:16;;;;;;;14.00;6.70;;;;;;;5.73;89.07;102031.13;5014236;28;20471;-45
2022/01/17 08:33:05;;;;;;;10.00;5.97;;;;;;;5.88;84.25;102020.06;5016111;28;20429;-48
2022/01/17 08:35:33;;;;;;;9.03;6.63;;;;;;;5.95;83.22;102022.97;5018140;28;20443;-46
2022/01/17 08:38:01;;;;;;;10.60;7.20;;;;;;;6.08;80.34;102037.66;5015761;28;20452;-48
2022/01/17 08:40:29;;;;;;;12.33;6.90;;;;;;;6.11;81.38;102026.78;5019029;28;20468;-50
2022/01/17 08:42:57;;;;;;;16.70;6.30;;;;;;;6.06;82.61;102028.19;5013327;28;20444;-46
2022/01/17 08:45:26;;;;;;;9.57;6.80;;;;;;;6.04;82.10;102030.09;5002094;28;20453;-47
2022/01/17 08:48:12;;;;;;;14.63;5.70;;;;;;;6.02;84.00;102048.78;5013246;28;20433;-47
2022/01/17 08:50:41;;;;;;;10.50;6.00;;;;;;;6.08;83.82;102081.84;5014603;28;21049;-48
2022/01/17 08:53:10;;;;;;;13.83;9.10;;;;;;;5.95;87.34;102071.47;5022504;28;20439;-49
2022/01/17 08:55:38;;;;;;;15.07;13.70;;;;;;;5.68;88.55;102107.41;5018665;28;20544;-48
2022/01/17 08:58:07;;;;;;;27.07;25.17;;;;;;;5.35;89.58;101976.22;5024938;28;20443;-48
2022/01/17 09:00:35;;;;;;;31.50;28.23;;;;;;;5.04;92.49;102110.22;5024965;28;20471;-44
2022/01/17 09:03:21;;;;;;;30.60;27.73;;;;;;;4.74;96.03;102084.53;5017791;28;20465;-46
2022/01/17 09:05:50;;;;;;;29.30;26.73;;;;;;;4.64;95.60;102117.94;5023496;28;20516;-47
2022/01/17 09:08:19;;;;;;;30.33;25.37;;;;;;;4.52;96.35;102134.78;5024677;28;20433;-46
2022/01/17 09:10:47;;;;;;;30.07;27.80;;;;;;;4.49;96.10;102142.94;5022414;28;20471;-45
2022/01/17 09:13:14;;;;;;;28.67;26.17;;;;;;;4.47;95.84;102132.53;5018140;28;20479;-46
2022/01/17 09:15:42;;;;;;;27.10;23.63;;;;;;;4.49;95.51;102103.31;5022961;28;20462;-46
2022/01/17 09:18:12;;;;;;;20.23;15.30;;;;;;;4.49;95.50;102084.84;5025663;28;20424;-46
2022/01/17 09:20:41;;;;;;;13.53;10.73;;;;;;;4.50;96.06;102101.53;5021800;28;20460;-46
2022/01/17 09:23:09;;;;;;;19.30;12.07;;;;;;;4.57;96.55;102145.00;5019712;28;20433;-46
2022/01/17 09:25:36;;;;;;;12.10;9.60;;;;;;;4.58;96.00;102160.69;5019017;28;20461;-45
2022/01/17 09:28:05;;;;;;;20.00;8.80;;;;;;;4.58;96.50;102163.34;5019016;28;20440;-50
2022/01/17 09:30:32;;;;;;;16.27;9.97;;;;;;;4.63;96.56;102163.81;5019115;28;20481;-47
2022/01/17 09:33:00;;;;;;;22.07;9.70;;;;;;;4.66;96.41;102183.88;5028956;28;20927;-48
2022/01/17 09:35:28;;;;;;;20.30;9.73;;;;;;;4.69;96.51;102194.22;5029879;28;20448;-45
2022/01/17 09:37:57;;;;;;;15.60;9.27;;;;;;;4.72;96.85;102181.56;5010926;28;20436;-45
2022/01/17 09:40:26;;;;;;;12.70;7.87;;;;;;;4.71;96.34;102169.34;5022259;28;20468;-45
2022/01/17 09:42:56;;;;;;;15.20;7.43;;;;;;;4.76;97.12;102190.09;5019562;28;20936;-49
2022/01/17 09:45:24;;;;;;;22.67;9.93;;;;;;;4.80;96.61;102221.44;5020758;28;20861;-46
2022/01/17 09:47:52;;;;;;;14.63;9.77;;;;;;;4.88;96.21;102234.03;5017085;28;20440;-49
2022/01/17 09:50:22;;;;;;;14.40;7.67;;;;;;;4.92;96.67;102236.31;5019163;28;20475;-44
2022/01/17 09:52:53;;;;;;;19.67;7.43;;;;;;;4.95;96.13;102241.38;5011737;28;20430;-44
2022/01/17 09:55:24;;;;;;;16.57;7.90;;;;;;;4.98;96.28;102234.97;5020576;28;20432;-48
2022/01/17 09:57:55;;;;;;;26.57;9.70;;;;;;;4.97;96.10;102250.00;5017761;28;20436;-47
2022/01/17 10:00:26;;;;;;;22.50;7.13;;;;;;;4.99;95.53;102228.72;5013718;28;20829;-44
2022/01/17 10:02:56;;;;;;;20.10;7.70;;;;;;;5.08;96.24;102240.38;5020494;28;20478;-44
2022/01/17 10:05:25;;;;;;;25.27;8.60;;;;;;;5.07;94.58;102260.69;5021183;28;20472;-46
2022/01/17 10:07:58;;;;;;;24.57;8.50;;;;;;;5.03;96.00;102261.88;5023199;28;20773;-45
2022/01/17 10:10:41;;;;;;;16.13;7.30;;;;;;;5.06;94.33;102269.56;5017852;28;21002;-46
2022/01/17 10:13:10;;;;;;;18.17;6.67;;;;;;;5.15;91.57;102291.78;5016939;28;20440;-48
2022/01/17 10:15:48;;;;;;;20.43;8.23;;;;;;;5.27;87.99;102286.34;5018560;28;20449;-47
2022/01/17 10:18:38;;;;;;;22.83;8.43;;;;;;;5.42;86.08;102286.88;5015610;28;20418;-47
2022/01/17 10:21:11;;;;;;;20.67;8.43;;;;;;;5.53;83.08;102286.84;5009903;28;20465;-46
2022/01/17 10:35:17;;;;;;;28.50;8.43;;;;;;;5.77;78.16;102268.09;5005714;28;20804;-46
2022/01/17 10:38:05;;;;;;;32.77;9.63;;;;;;;5.75;78.53;102286.75;5011214;28;20433;-46
2022/01/17 10:40:36;;;;;;;20.77;6.83;;;;;;;5.77;78.67;102297.19;4993307;28;20832;-44
2022/01/17 10:43:07;;;;;;;20.83;7.33;;;;;;;5.80;78.42;102283.72;5005703;28;20440;-48
2022/01/17 10:45:41;;;;;;;18.87;7.63;;;;;;;5.81;77.46;102278.31;4998308;28;20478;-49
2022/01/17 10:48:09;;;;;;;23.87;9.10;;;;;;;5.75;75.77;102300.00;5010411;28;20443;-49
2022/01/17 10:50:39;;;;;;;22.67;7.63;;;;;;;5.76;74.90;102324.66;5005242;28;20466;-46
2022/01/17 10:53:09;;;;;;;22.67;8.43;;;;;;;5.84;74.63;102335.44;4993928;28;20811;-47
2022/01/17 10:55:39;;;;;;;17.57;7.93;;;;;;;5.83;72.99;102318.72;5004686;28;20461;-45
2022/01/17 10:58:09;;;;;;;32.67;9.83;;;;;;;5.88;74.72;102321.03;4995322;28;20437;-50
2022/01/17 11:00:39;;;;;;;24.77;7.47;;;;;;;5.83;73.38;102339.91;4996623;28;20471;-46
2022/01/17 11:03:09;;;;;;;15.33;6.77;;;;;;;5.83;72.80;102382.25;4997453;28;20461;-46
2022/01/17 11:05:37;;;;;;;20.27;8.20;;;;;;;5.89;72.96;102360.59;4995570;28;20481;-44
2022/01/17 11:08:12;;;;;;;25.77;7.90;;;;;;;5.87;70.87;102357.25;4999141;28;20431;-48
2022/01/17 11:10:41;;;;;;;21.57;8.90;;;;;;;5.82;71.71;102338.22;4982943;28;20989;-48
2022/01/17 11:13:12;;;;;;;25.70;8.53;;;;;;;5.84;72.21;102377.81;4997710;28;20452;-49
2022/01/17 11:15:43;;;;;;;23.93;8.20;;;;;;;5.85;71.53;102369.78;4991535;28;21138;-47
2022/01/17 11:18:17;;;;;;;14.87;6.67;;;;;;;5.82;70.15;102388.53;4993515;28;20433;-46
2022/01/17 11:20:46;;;;;;;24.00;6.80;;;;;;;5.74;71.43;102393.59;4994651;28;21012;-51
2022/01/17 11:23:14;;;;;;;26.37;6.93;;;;;;;5.71;71.62;102388.53;5005108;28;20441;-48
2022/01/17 11:25:44;;;;;;;21.60;6.63;;;;;;;5.67;71.17;102428.63;4998001;28;20486;-51
2022/01/17 11:28:15;;;;;;;16.80;7.43;;;;;;;5.64;70.61;102368.88;4996128;28;20434;-46
2022/01/17 11:30:44;;;;;;;32.57;8.63;;;;;;;5.61;71.27;102376.19;4991714;28;20963;-45
2022/01/17 11:33:12;;;;;;;18.00;7.50;;;;;;;5.69;71.91;102398.44;4997907;28;20840;-49
2022/01/17 11:35:42;;;;;;;22.83;7.70;;;;;;;5.71;72.35;102404.44;5000593;28;20454;-44
2022/01/17 11:38:12;;;;;;;22.10;6.40;;;;;;;5.73;72.42;102418.41;5009288;28;20436;-47
2022/01/17 11:40:42;;;;;;;17.00;7.00;;;;;;;5.68;70.82;102414.41;5006382;28;20476;-47
2022/01/17 11:43:20;;;;;;;17.70;7.50;;;;;;;5.67;72.02;102423.34;5000650;28;20429;-50
2022/01/17 11:45:49;;;;;;;27.83;9.07;;;;;;;5.66;70.72;102422.50;4991248;28;20470;-47
2022/01/17 11:48:26;;;;;;;36.53;8.40;;;;;;;5.62;70.23;102428.16;4991829;28;20810;-47
2022/01/17 11:50:59;;;;;;;24.83;9.40;;;;;;;5.61;71.11;102434.44;4990149;28;20466;-45
2022/01/17 11:53:52;;;;;;;26.03;10.33;;;;;;;5.62;71.58;102442.22;4995021;28;20947;-45
2022/01/17 11:56:39;;;;;;;16.63;8.53;;;;;;;5.54;69.12;102439.38;4986125;28;20469;-49